Time;durP1;ratioP1;P1;durP2;ratioP2;P2;SDS_P1;SDS_P2;PMS_P1;PMS_P2;Temp;Humidity;BMP_temperature;BMP_pressure;BME280_temperature;BME280_humidity;BME280_pressure;Samples;Min_cycle;Max_cycle;Signal;HPM_P1;HPM_P2
2022/08/31 00:04:54;;;;;;;2.10;1.27;;;;;;;14.71;100.00;101364.38;5040200;28;20227;-71
2022/08/31 00:07:21;;;;;;;1.23;1.13;;;;;;;14.66;100.00;101366.28;5018057;28;20220;-73
2022/08/31 00:09:47;;;;;;;2.90;1.30;;;;;;;14.68;100.00;101369.69;5027108;28;20204;-70
2022/08/31 00:12:14;;;;;;;1.33;1.23;;;;;;;14.62;100.00;101360.25;5019516;28;20230;-74
2022/08/31 00:14:40;;;;;;;1.70;1.53;;;;;;;14.68;100.00;101361.81;5020817;28;20656;-73
2022/08/31 00:17:07;;;;;;;1.30;1.20;;;;;;;14.71;100.00;101357.34;5026613;28;20207;-74
2022/08/31 00:19:35;;;;;;;1.40;1.17;;;;;;;14.68;100.00;101365.31;5021768;28;20286;-73
2022/08/31 00:22:01;;;;;;;1.17;1.00;;;;;;;14.64;100.00;101362.84;5046443;28;20207;-70
2022/08/31 00:24:28;;;;;;;1.70;1.40;;;;;;;14.65;100.00;101367.16;5055643;28;20233;-73
2022/08/31 00:26:54;;;;;;;1.47;1.37;;;;;;;14.67;100.00;101365.34;5018315;28;20218;-70
2022/08/31 00:29:21;;;;;;;1.10;1.00;;;;;;;14.65;100.00;101367.16;5009973;28;20859;-71
2022/08/31 00:31:47;;;;;;;2.27;1.17;;;;;;;14.68;100.00;101365.31;5026087;28;20220;-70
2022/08/31 00:34:14;;;;;;;4.50;1.37;;;;;;;14.65;100.00;101365.41;5009612;28;20239;-72
2022/08/31 00:36:46;;;;;;;1.90;1.50;;;;;;;14.71;100.00;101362.59;5009541;28;20265;-71
2022/08/31 00:39:12;;;;;;;1.43;1.33;;;;;;;14.67;100.00;101363.59;5006065;28;20196;-73
2022/08/31 00:41:39;;;;;;;1.50;1.40;;;;;;;14.68;100.00;101365.31;5007422;28;20230;-72
2022/08/31 00:44:08;;;;;;;1.40;1.20;;;;;;;14.61;100.00;101361.16;5013292;28;20762;-72
2022/08/31 00:46:39;;;;;;;1.60;1.30;;;;;;;14.62;100.00;101370.75;5026746;28;20274;-72
2022/08/31 00:49:09;;;;;;;1.97;1.30;;;;;;;14.64;100.00;101361.06;5009960;28;20649;-71
2022/08/31 00:51:40;;;;;;;1.30;1.20;;;;;;;14.66;100.00;101371.53;5027276;28;20584;-71
2022/08/31 00:54:10;;;;;;;1.83;1.23;;;;;;;14.61;100.00;101374.28;5008891;28;20714;-73
2022/08/31 00:56:38;;;;;;;1.60;1.50;;;;;;;14.58;100.00;101370.00;5002775;28;20199;-72
2022/08/31 00:59:05;;;;;;;2.03;1.37;;;;;;;14.58;100.00;101369.13;5008655;28;20212;-71
2022/08/31 01:01:32;;;;;;;1.87;1.30;;;;;;;14.55;100.00;101367.44;5027101;28;20231;-71
2022/08/31 01:03:59;;;;;;;1.87;1.37;;;;;;;14.61;100.00;101373.44;5027597;28;20192;-71
2022/08/31 01:06:26;;;;;;;1.30;1.20;;;;;;;14.61;100.00;101368.19;5009464;28;20200;-71
2022/08/31 01:08:55;;;;;;;1.40;1.10;;;;;;;14.60;100.00;101363.81;5008659;28;20209;-70
2022/08/31 01:11:23;;;;;;;1.40;1.30;;;;;;;14.51;100.00;101367.56;5009209;28;20914;-71
2022/08/31 01:13:50;;;;;;;2.10;1.43;;;;;;;14.50;100.00;101361.47;5009348;28;20215;-71
2022/08/31 01:16:22;;;;;;;4.43;1.40;;;;;;;14.49;100.00;101365.00;5016633;28;20214;-71
2022/08/31 01:18:51;;;;;;;1.30;1.20;;;;;;;14.47;100.00;101365.94;5015713;28;20580;-71
2022/08/31 01:21:26;;;;;;;2.30;1.60;;;;;;;14.42;100.00;101370.47;5038126;28;20247;-70
2022/08/31 01:23:57;;;;;;;2.70;1.37;;;;;;;14.36;100.00;101363.66;5006992;28;20195;-70
2022/08/31 01:26:26;;;;;;;3.13;1.47;;;;;;;14.35;100.00;101364.53;5024447;28;20204;-70
2022/08/31 01:28:56;;;;;;;1.60;1.40;;;;;;;14.33;100.00;101367.22;5006098;28;20205;-71
2022/08/31 01:31:26;;;;;;;1.23;1.13;;;;;;;14.32;100.00;101369.91;5011975;28;20215;-70
2022/08/31 01:33:54;;;;;;;1.57;1.33;;;;;;;14.31;100.00;101371.66;5012610;28;20255;-71
2022/08/31 01:36:22;;;;;;;1.40;1.20;;;;;;;14.31;100.00;101368.16;5009483;28;20214;-74
2022/08/31 01:38:48;;;;;;;3.37;1.67;;;;;;;14.28;100.00;101373.50;5013345;28;20589;-71
2022/08/31 01:41:17;;;;;;;2.23;1.50;;;;;;;14.24;100.00;101370.13;5030660;28;20250;-71
2022/08/31 01:43:43;;;;;;;1.40;1.30;;;;;;;14.18;100.00;101371.16;5009157;28;20195;-71
2022/08/31 01:46:12;;;;;;;1.50;1.40;;;;;;;14.16;100.00;101375.59;5009666;28;20215;-71
2022/08/31 01:48:40;;;;;;;1.63;1.30;;;;;;;14.16;100.00;101386.09;5030590;28;20210;-71
2022/08/31 01:51:08;;;;;;;2.53;1.10;;;;;;;14.14;100.00;101382.66;5027947;28;20223;-71
2022/08/31 01:53:35;;;;;;;2.03;1.10;;;;;;;14.13;100.00;101377.44;5032541;28;20219;-72
2022/08/31 01:56:02;;;;;;;2.53;1.37;;;;;;;14.12;100.00;101366.06;5007849;28;20222;-72
2022/08/31 01:58:30;;;;;;;1.30;1.20;;;;;;;14.10;100.00;101372.28;5013029;28;20206;-71
2022/08/31 02:01:11;;;;;;;2.40;1.40;;;;;;;14.07;100.00;101370.63;5007606;28;20230;-72
2022/08/31 02:03:37;;;;;;;1.20;1.10;;;;;;;14.03;100.00;101368.97;5008471;28;20208;-72
2022/08/31 02:06:07;;;;;;;1.20;1.10;;;;;;;13.98;100.00;101363.00;5009357;28;20204;-72
2022/08/31 02:08:34;;;;;;;1.73;1.40;;;;;;;14.02;100.00;101368.13;5008244;28;20258;-72
2022/08/31 02:11:00;;;;;;;1.63;1.13;;;;;;;13.98;100.00;101370.88;5011339;28;20240;-71
2022/08/31 02:13:27;;;;;;;1.70;1.30;;;;;;;13.87;100.00;101368.56;5004215;28;20298;-71
2022/08/31 02:15:55;;;;;;;2.53;1.47;;;;;;;13.86;100.00;101368.59;5003254;28;20204;-71
2022/08/31 02:18:21;;;;;;;1.37;1.17;;;;;;;13.88;100.00;101372.03;5009540;28;20661;-71
2022/08/31 02:20:47;;;;;;;1.30;1.20;;;;;;;13.82;100.00;101367.81;5009207;28;20254;-72
2022/08/31 02:23:14;;;;;;;1.30;1.20;;;;;;;13.79;100.00;101363.53;5009072;28;20224;-71
2022/08/31 02:25:40;;;;;;;2.80;1.30;;;;;;;13.74;100.00;101360.19;4998145;28;20573;-72
2022/08/31 02:28:07;;;;;;;1.43;1.33;;;;;;;13.67;100.00;101368.22;5008065;28;20198;-71
2022/08/31 02:30:34;;;;;;;3.20;1.40;;;;;;;13.64;100.00;101367.41;5009720;28;20324;-71
2022/08/31 02:33:02;;;;;;;2.47;1.40;;;;;;;13.58;100.00;101364.13;5010247;28;20217;-71
2022/08/31 02:35:29;;;;;;;3.23;1.50;;;;;;;13.49;100.00;101362.63;5013999;28;20207;-71
2022/08/31 02:37:55;;;;;;;4.13;1.47;;;;;;;13.47;100.00;101364.38;5013005;28;20208;-71
2022/08/31 02:40:22;;;;;;;1.37;1.27;;;;;;;13.45;100.00;101366.19;5008176;28;20222;-71
2022/08/31 02:42:49;;;;;;;2.50;1.30;;;;;;;13.46;100.00;101367.94;5006915;28;20211;-71
2022/08/31 02:45:16;;;;;;;1.47;1.17;;;;;;;13.41;100.00;101360.19;5008539;28;20205;-71
2022/08/31 02:47:43;;;;;;;1.50;1.10;;;;;;;13.38;100.00;101357.63;5012621;28;20206;-71
2022/08/31 02:50:27;;;;;;;3.33;1.33;;;;;;;13.34;100.00;101360.38;5008365;28;20236;-71
2022/08/31 02:52:55;;;;;;;2.57;1.40;;;;;;;13.30;100.00;101359.56;5009126;28;20758;-72
2022/08/31 02:55:22;;;;;;;1.80;1.20;;;;;;;13.26;100.00;101363.16;5019411;28;20721;-72
2022/08/31 02:57:49;;;;;;;1.40;1.30;;;;;;;13.22;100.00;101361.53;5007771;28;20264;-72
2022/08/31 03:00:21;;;;;;;2.83;1.43;;;;;;;13.18;100.00;101363.34;5007067;28;20854;-71
2022/08/31 03:02:48;;;;;;;1.60;1.47;;;;;;;13.16;100.00;101367.78;5008563;28;20215;-74
2022/08/31 03:05:15;;;;;;;1.30;1.20;;;;;;;13.14;100.00;101359.09;4987686;28;20212;-71
2022/08/31 03:07:43;;;;;;;1.50;1.40;;;;;;;13.11;100.00;101353.94;4987709;28;20205;-71
2022/08/31 03:10:12;;;;;;;1.57;1.40;;;;;;;13.08;100.00;101356.63;5008173;28;20272;-72
2022/08/31 03:12:39;;;;;;;3.10;1.60;;;;;;;13.07;100.00;101352.31;5005260;28;20285;-71
2022/08/31 03:15:07;;;;;;;2.23;1.60;;;;;;;13.04;100.00;101358.47;4991970;28;20311;-71
2022/08/31 03:17:34;;;;;;;1.47;1.37;;;;;;;13.02;100.00;101346.31;4993504;28;20258;-72
2022/08/31 03:20:03;;;;;;;1.50;1.40;;;;;;;13.00;100.00;101355.97;4996501;28;20197;-72
2022/08/31 03:22:31;;;;;;;2.00;1.40;;;;;;;12.99;100.00;101354.25;5020055;28;20208;-73
2022/08/31 03:25:00;;;;;;;1.47;1.37;;;;;;;12.98;100.00;101342.94;5018714;28;20283;-69
2022/08/31 03:27:29;;;;;;;1.40;1.30;;;;;;;12.96;100.00;101349.94;5010652;28;20251;-73
2022/08/31 03:29:55;;;;;;;2.67;1.70;;;;;;;12.97;100.00;101348.19;5034052;28;20200;-73
2022/08/31 03:32:26;;;;;;;2.87;1.40;;;;;;;12.95;100.00;101355.22;5010627;28;20221;-71
2022/08/31 03:34:55;;;;;;;2.07;1.73;;;;;;;12.96;100.00;101354.31;5008157;28;20217;-74
2022/08/31 03:37:22;;;;;;;2.10;1.43;;;;;;;12.92;100.00;101350.91;5004766;28;20208;-73
2022/08/31 03:39:50;;;;;;;1.27;1.17;;;;;;;12.89;100.00;101356.22;5011781;28;20259;-73
2022/08/31 03:42:19;;;;;;;1.43;1.30;;;;;;;12.84;100.00;101360.69;5008376;28;20262;-71
2022/08/31 03:44:46;;;;;;;1.23;1.13;;;;;;;12.81;100.00;101360.78;5002098;28;20214;-71
2022/08/31 03:47:20;;;;;;;2.10;1.50;;;;;;;12.76;100.00;101365.28;5007656;28;20214;-71
2022/08/31 03:49:46;;;;;;;2.90;1.43;;;;;;;12.72;100.00;101356.63;4999828;28;20204;-71
2022/08/31 03:52:19;;;;;;;2.23;1.50;;;;;;;12.68;100.00;101360.19;4984005;28;20225;-71
2022/08/31 03:54:49;;;;;;;1.60;1.50;;;;;;;12.72;100.00;101359.25;4998998;28;20581;-71
2022/08/31 03:57:15;;;;;;;1.40;1.30;;;;;;;12.65;100.00;101366.38;5007932;28;20200;-71
2022/08/31 03:59:44;;;;;;;1.37;1.27;;;;;;;12.58;100.00;101364.78;5012844;28;20197;-71
2022/08/31 04:02:20;;;;;;;1.43;1.33;;;;;;;12.56;100.00;101366.59;5022022;28;20578;-71
2022/08/31 04:05:06;;;;;;;2.97;1.37;;;;;;;12.55;100.00;101366.63;5031551;28;20245;-72
2022/08/31 04:07:42;;;;;;;1.50;1.40;;;;;;;12.49;100.00;101365.00;5030543;28;20202;-71
2022/08/31 04:10:27;;;;;;;1.43;1.33;;;;;;;12.43;100.00;101365.13;5026242;28;20694;-71
2022/08/31 04:13:12;;;;;;;2.73;1.63;;;;;;;12.41;100.00;101373.00;5023993;28;20386;-71
2022/08/31 04:16:11;;;;;;;1.20;1.10;;;;;;;12.34;100.00;101368.81;5027660;28;20196;-71
2022/08/31 04:18:56;;;;;;;3.53;1.30;;;;;;;12.35;100.00;101372.28;5028415;28;20664;-71
2022/08/31 04:21:26;;;;;;;1.60;1.40;;;;;;;12.32;100.00;101375.81;5028025;28;20215;-71
2022/08/31 04:23:54;;;;;;;2.57;1.60;;;;;;;12.25;100.00;101377.72;5028612;28;20192;-71
2022/08/31 04:26:24;;;;;;;2.00;1.43;;;;;;;12.27;100.00;101375.06;5012902;28;20203;-71
2022/08/31 04:28:51;;;;;;;1.77;1.37;;;;;;;12.39;100.00;101380.03;5008455;28;20203;-71
2022/08/31 04:31:20;;;;;;;1.20;1.10;;;;;;;12.29;100.00;101382.00;5010778;28;20219;-71
2022/08/31 04:33:47;;;;;;;1.57;1.40;;;;;;;12.25;100.00;101388.16;5012110;28;20299;-71
2022/08/31 04:36:16;;;;;;;1.50;1.30;;;;;;;12.23;100.00;101376.88;5008327;28;20242;-71
2022/08/31 04:38:43;;;;;;;1.97;1.37;;;;;;;12.32;100.00;101392.38;5009182;28;20203;-71
2022/08/31 04:41:11;;;;;;;1.30;1.20;;;;;;;12.27;100.00;101386.38;5009618;28;20243;-71
2022/08/31 04:43:39;;;;;;;1.50;1.40;;;;;;;12.19;100.00;101387.44;5013848;28;20234;-71
2022/08/31 04:46:07;;;;;;;1.50;1.40;;;;;;;12.18;100.00;101391.81;5009682;28;20208;-72
2022/08/31 04:48:36;;;;;;;2.00;1.40;;;;;;;12.28;100.00;101395.94;5007473;28;20231;-71
2022/08/31 04:51:04;;;;;;;1.83;1.63;;;;;;;12.35;100.00;101396.69;5013973;28;20728;-71
2022/08/31 04:53:32;;;;;;;1.83;1.67;;;;;;;12.31;100.00;101406.34;5012663;28;20208;-71
2022/08/31 04:55:58;;;;;;;2.40;1.70;;;;;;;12.26;100.00;101405.59;5014159;28;20207;-71
2022/08/31 04:58:25;;;;;;;1.63;1.50;;;;;;;12.22;100.00;101406.53;5012606;28;20273;-71
2022/08/31 05:00:52;;;;;;;1.90;1.67;;;;;;;12.27;100.00;101412.53;5007362;28;20235;-71
2022/08/31 05:03:27;;;;;;;1.90;1.70;;;;;;;12.39;100.00;101407.94;5012817;28;20194;-71
2022/08/31 05:05:56;;;;;;;2.97;1.60;;;;;;;12.36;100.00;101424.53;5016842;28;20816;-72
2022/08/31 05:08:23;;;;;;;2.07;1.80;;;;;;;12.49;100.00;101415.56;5024154;28;20238;-71
2022/08/31 05:10:49;;;;;;;2.27;1.57;;;;;;;12.56;100.00;101412.78;5010456;28;20310;-71
2022/08/31 05:13:16;;;;;;;1.87;1.67;;;;;;;12.49;100.00;101420.78;5012228;28;20192;-71
2022/08/31 05:15:43;;;;;;;2.00;1.70;;;;;;;12.54;100.00;101417.19;5012851;28;20219;-71
2022/08/31 05:18:13;;;;;;;1.93;1.50;;;;;;;12.57;100.00;101423.22;5013604;28;20220;-71
2022/08/31 05:20:47;;;;;;;2.80;1.63;;;;;;;12.59;100.00;101417.97;5004482;28;20299;-71
2022/08/31 05:23:14;;;;;;;1.80;1.70;;;;;;;12.67;100.00;101427.38;5025948;28;20207;-71
2022/08/31 05:25:43;;;;;;;1.80;1.67;;;;;;;12.68;100.00;101425.59;5012586;28;20191;-71
2022/08/31 05:28:10;;;;;;;2.33;2.10;;;;;;;12.69;100.00;101429.94;5006434;28;20702;-71
2022/08/31 05:30:36;;;;;;;5.87;1.90;;;;;;;12.71;100.00;101428.16;5012563;28;20227;-71
2022/08/31 05:33:08;;;;;;;4.13;1.90;;;;;;;12.80;100.00;101425.31;5012575;28;20204;-71
2022/08/31 05:35:36;;;;;;;2.80;1.70;;;;;;;12.77;100.00;101425.41;5011839;28;20322;-71
2022/08/31 05:38:02;;;;;;;2.27;2.07;;;;;;;12.83;100.00;101422.66;5029557;28;20234;-71
2022/08/31 05:40:31;;;;;;;2.70;1.63;;;;;;;12.76;100.00;101422.84;5023551;28;20226;-71
2022/08/31 05:42:58;;;;;;;1.70;1.50;;;;;;;12.77;100.00;101428.03;5016519;28;20691;-71
2022/08/31 05:45:25;;;;;;;3.63;1.83;;;;;;;12.82;100.00;101430.53;5010626;28;20235;-71
2022/08/31 05:47:51;;;;;;;3.40;1.47;;;;;;;12.84;100.00;101429.63;5010728;28;20200;-71
2022/08/31 05:50:18;;;;;;;1.53;1.43;;;;;;;12.86;100.00;101430.44;5009948;28;20227;-71
2022/08/31 05:52:45;;;;;;;1.63;1.43;;;;;;;12.89;100.00;101421.63;5011428;28;20213;-71
2022/08/31 05:55:11;;;;;;;2.40;1.60;;;;;;;12.95;100.00;101426.75;5011883;28;20834;-71
2022/08/31 05:57:39;;;;;;;2.40;1.70;;;;;;;13.03;100.00;101434.41;5028966;28;20730;-71
2022/08/31 06:00:08;;;;;;;1.60;1.43;;;;;;;13.10;100.00;101435.97;5007916;28;20571;-72
2022/08/31 06:02:39;;;;;;;3.50;1.70;;;;;;;13.19;100.00;101442.75;5002368;28;20924;-72
2022/08/31 06:05:07;;;;;;;1.53;1.30;;;;;;;13.30;100.00;101447.72;4992245;28;20228;-71
2022/08/31 06:07:34;;;;;;;1.70;1.60;;;;;;;13.37;100.00;101447.59;4992295;28;20280;-71
2022/08/31 06:10:02;;;;;;;1.70;1.40;;;;;;;13.43;100.00;101451.81;4992480;28;20210;-71
2022/08/31 06:12:33;;;;;;;2.30;1.40;;;;;;;13.50;100.00;101449.91;4992554;28;20779;-71
2022/08/31 06:15:04;;;;;;;2.03;1.30;;;;;;;13.55;100.00;101448.88;5008064;28;20271;-71
2022/08/31 06:17:31;;;;;;;2.37;1.60;;;;;;;13.64;100.00;101460.91;5009732;28;20207;-71
2022/08/31 06:19:57;;;;;;;1.23;1.13;;;;;;;13.71;100.00;101456.38;4982339;28;20812;-71
2022/08/31 06:22:24;;;;;;;1.40;1.30;;;;;;;13.73;100.00;101455.41;4986540;28;20197;-71
2022/08/31 06:24:53;;;;;;;1.90;1.27;;;;;;;13.75;100.00;101465.84;4988488;28;20211;-72
2022/08/31 06:27:20;;;;;;;2.13;1.40;;;;;;;13.76;100.00;101470.22;4987451;28;20273;-71
2022/08/31 06:29:48;;;;;;;2.23;1.20;;;;;;;13.75;100.00;101471.09;4991799;28;20209;-71
2022/08/31 06:32:16;;;;;;;2.13;1.40;;;;;;;13.76;100.00;101460.59;4991672;28;20273;-71
2022/08/31 06:34:55;;;;;;;1.40;1.20;;;;;;;13.76;100.00;101462.34;4984488;28;20253;-71
2022/08/31 06:37:54;;;;;;;3.80;1.10;;;;;;;13.82;100.00;101472.66;5014959;28;20220;-71
2022/08/31 06:40:39;;;;;;;2.03;1.10;;;;;;;13.89;100.00;101465.50;5004438;28;20231;-71
2022/08/31 06:43:27;;;;;;;1.30;1.20;;;;;;;13.98;100.00;101467.88;4985635;28;20245;-71
2022/08/31 06:45:59;;;;;;;1.87;1.30;;;;;;;14.05;100.00;101468.56;4988415;28;20295;-71
2022/08/31 06:48:33;;;;;;;2.60;1.10;;;;;;;14.13;100.00;101469.22;5007879;28;20326;-71
2022/08/31 06:51:00;;;;;;;1.27;1.17;;;;;;;14.15;100.00;101470.88;4984866;28;20985;-71
2022/08/31 06:53:27;;;;;;;1.20;1.10;;;;;;;14.23;100.00;101475.06;4988169;28;20699;-71
2022/08/31 06:56:04;;;;;;;1.93;1.37;;;;;;;14.34;100.00;101478.25;4987878;28;20216;-71
2022/08/31 06:59:04;;;;;;;3.07;1.37;;;;;;;14.41;100.00;101471.94;5002578;28;20247;-71
2022/08/31 07:01:49;;;;;;;1.40;1.20;;;;;;;14.52;100.00;101471.63;5022126;28;20237;-72
2022/08/31 07:04:25;;;;;;;2.03;1.30;;;;;;;14.57;100.00;101475.81;5011752;28;20719;-72
2022/08/31 07:06:51;;;;;;;1.10;0.90;;;;;;;14.64;100.00;101478.31;4998641;28;20269;-71
2022/08/31 07:09:18;;;;;;;1.20;1.10;;;;;;;14.77;100.00;101484.91;5021200;28;20266;-71
2022/08/31 07:11:47;;;;;;;1.80;1.20;;;;;;;14.77;100.00;101488.41;5001074;28;20239;-71
2022/08/31 07:14:17;;;;;;;1.10;1.00;;;;;;;14.84;100.00;101489.06;4998565;28;20215;-71
2022/08/31 07:16:45;;;;;;;1.63;1.07;;;;;;;14.93;100.00;101491.44;5002000;28;20809;-71
2022/08/31 07:19:13;;;;;;;1.30;1.07;;;;;;;15.00;100.00;101492.06;5016018;28;20721;-72
2022/08/31 07:21:43;;;;;;;3.30;1.43;;;;;;;15.08;100.00;101499.75;5026407;28;20692;-71
2022/08/31 07:24:11;;;;;;;1.10;1.00;;;;;;;15.20;100.00;101504.59;5025399;28;20225;-72
2022/08/31 07:26:41;;;;;;;2.10;1.17;;;;;;;15.26;100.00;101503.53;5026676;28;20223;-71
2022/08/31 07:29:09;;;;;;;2.03;0.97;;;;;;;15.42;100.00;101498.66;5011978;28;20220;-71
2022/08/31 07:31:43;;;;;;;1.30;0.83;;;;;;;15.49;100.00;101503.66;5011387;28;20223;-72
2022/08/31 07:34:12;;;;;;;1.20;1.10;;;;;;;15.61;100.00;101499.78;5012634;28;20203;-71
2022/08/31 07:42:27;;;;;;;0.90;0.90;;;;;;;15.99;100.00;101518.69;5029460;28;20272;-71
2022/08/31 07:44:55;;;;;;;1.13;0.93;;;;;;;16.02;100.00;101513.34;5005022;28;20199;-71
2022/08/31 07:47:24;;;;;;;0.80;0.80;;;;;;;16.17;100.00;101516.31;5012248;28;20206;-72
2022/08/31 07:49:53;;;;;;;1.37;1.00;;;;;;;16.25;100.00;101524.78;5008513;28;20200;-71
2022/08/31 07:52:45;;;;;;;1.33;0.90;;;;;;;16.31;100.00;101527.22;5010910;28;20233;-72
2022/08/31 07:55:34;;;;;;;1.97;1.00;;;;;;;16.33;100.00;101532.44;5023589;28;20223;-71
2022/08/31 07:58:02;;;;;;;1.90;1.03;;;;;;;16.35;100.00;101528.81;5011238;28;20196;-71
2022/08/31 08:00:31;;;;;;;2.13;1.00;;;;;;;16.44;100.00;101528.47;5008911;28;20224;-72
2022/08/31 08:03:06;;;;;;;1.30;1.00;;;;;;;16.67;100.00;101537.31;5004952;28;20205;-72
2022/08/31 08:05:40;;;;;;;1.10;1.00;;;;;;;16.85;100.00;101530.53;5002288;28;20201;-72
2022/08/31 08:08:26;;;;;;;1.10;0.97;;;;;;;16.91;100.00;101532.94;5008155;28;20206;-72
2022/08/31 08:11:03;;;;;;;1.17;1.00;;;;;;;17.05;100.00;101532.41;5005098;28;20224;-72
2022/08/31 08:14:02;;;;;;;2.80;0.90;;;;;;;17.33;100.00;101544.50;4986932;28;20212;-71
2022/08/31 08:16:43;;;;;;;1.20;1.00;;;;;;;17.28;100.00;101547.31;5004895;28;20212;-72
2022/08/31 08:19:29;;;;;;;1.37;0.90;;;;;;;17.41;100.00;101540.63;4999517;28;20235;-71
2022/08/31 08:21:56;;;;;;;1.67;0.90;;;;;;;17.35;100.00;101542.66;5005756;28;20286;-72
2022/08/31 08:24:28;;;;;;;2.10;0.80;;;;;;;17.38;100.00;101535.47;5006992;28;20232;-72
2022/08/31 08:27:20;;;;;;;1.00;0.77;;;;;;;17.19;100.00;101545.03;5008264;28;20821;-72
2022/08/31 08:29:57;;;;;;;1.47;0.90;;;;;;;17.28;100.00;101539.41;5008765;28;20197;-71
2022/08/31 08:32:30;;;;;;;0.97;0.83;;;;;;;17.35;100.00;101532.97;5004729;28;20673;-72
2022/08/31 08:34:57;;;;;;;1.33;0.90;;;;;;;17.49;100.00;101526.28;5013015;28;20303;-72
2022/08/31 08:37:26;;;;;;;2.50;1.10;;;;;;;17.48;100.00;101538.59;5014157;28;20298;-72
2022/08/31 08:39:54;;;;;;;3.23;0.80;;;;;;;17.53;100.00;101549.81;5007868;28;20206;-72
2022/08/31 08:42:24;;;;;;;1.53;0.93;;;;;;;17.46;100.00;101555.41;5010104;28;20220;-71
2022/08/31 08:44:51;;;;;;;0.80;0.80;;;;;;;17.57;100.00;101545.25;5012075;28;20214;-72
2022/08/31 08:47:21;;;;;;;1.20;1.00;;;;;;;17.54;100.00;101542.78;5005968;28;20204;-71
2022/08/31 08:49:57;;;;;;;1.77;1.00;;;;;;;17.67;100.00;101551.88;5014753;28;20920;-72
2022/08/31 08:52:28;;;;;;;1.37;1.00;;;;;;;17.78;100.00;101546.16;5007815;28;20212;-71
2022/08/31 08:55:01;;;;;;;1.03;0.80;;;;;;;17.91;100.00;101547.41;5009009;28;20485;-71
2022/08/31 08:57:31;;;;;;;1.40;0.90;;;;;;;17.96;100.00;101555.13;5006229;28;20205;-72
2022/08/31 09:00:04;;;;;;;1.03;0.80;;;;;;;17.87;100.00;101552.84;5024303;28;20703;-71
2022/08/31 09:02:39;;;;;;;0.83;0.80;;;;;;;17.91;100.00;101555.31;5009544;28;20296;-72
2022/08/31 09:05:20;;;;;;;2.30;0.97;;;;;;;17.93;100.00;101548.19;5005764;28;20200;-72
2022/08/31 09:08:16;;;;;;;1.70;0.80;;;;;;;17.97;100.00;101548.91;5010042;28;20748;-72
2022/08/31 09:10:58;;;;;;;2.17;1.00;;;;;;;18.04;100.00;101554.78;5026802;28;20267;-72
2022/08/31 09:13:35;;;;;;;1.67;0.80;;;;;;;18.03;100.00;101551.31;5029090;28;20212;-72
2022/08/31 09:16:16;;;;;;;1.20;0.90;;;;;;;18.17;100.00;101554.22;5020253;28;20326;-72
2022/08/31 09:18:46;;;;;;;0.83;0.70;;;;;;;18.36;100.00;101542.81;5009322;28;20210;-72
2022/08/31 09:21:20;;;;;;;1.00;0.80;;;;;;;18.47;100.00;101545.88;5009502;28;20783;-72
2022/08/31 09:23:54;;;;;;;1.03;0.97;;;;;;;18.63;100.00;101553.09;5017026;28;20298;-72
2022/08/31 09:26:24;;;;;;;1.97;0.83;;;;;;;18.57;100.00;101548.94;5012728;28;20210;-72
2022/08/31 09:29:03;;;;;;;2.90;1.00;;;;;;;18.84;100.00;101556.59;5006390;28;20291;-72
2022/08/31 09:31:37;;;;;;;3.47;0.80;;;;;;;19.02;100.00;101541.66;5007051;28;20216;-72
2022/08/31 09:34:07;;;;;;;0.90;0.80;;;;;;;19.15;100.00;101548.06;5012157;28;20204;-72
2022/08/31 09:36:39;;;;;;;0.83;0.80;;;;;;;19.21;100.00;101545.13;5013333;28;20266;-72
2022/08/31 09:39:21;;;;;;;1.13;0.80;;;;;;;19.36;100.00;101540.88;5011829;28;20304;-72
2022/08/31 09:41:50;;;;;;;0.90;0.80;;;;;;;19.54;100.00;101543.56;5014959;28;20330;-72
2022/08/31 09:44:29;;;;;;;1.13;0.83;;;;;;;19.60;100.00;101549.41;5011061;28;20292;-72
2022/08/31 09:46:59;;;;;;;0.60;0.60;;;;;;;19.74;100.00;101542.63;5007220;28;20201;-72
2022/08/31 09:49:27;;;;;;;1.50;0.90;;;;;;;19.95;100.00;101543.31;5016338;28;20212;-72
2022/08/31 09:52:18;;;;;;;0.80;0.70;;;;;;;20.02;100.00;101540.28;5008605;28;20228;-72
2022/08/31 09:55:12;;;;;;;3.00;0.93;;;;;;;20.00;99.33;101543.94;5009080;28;20604;-72
2022/08/31 09:57:49;;;;;;;0.80;0.80;;;;;;;20.00;98.86;101550.09;5013288;28;20193;-72
2022/08/31 10:00:30;;;;;;;0.80;0.80;;;;;;;20.16;99.15;101541.38;5006310;28;20231;-72
2022/08/31 10:03:08;;;;;;;1.07;0.90;;;;;;;20.27;98.57;101538.16;5028220;28;20210;-72
2022/08/31 10:05:39;;;;;;;1.17;0.73;;;;;;;20.33;93.16;101538.66;5029994;28;20203;-72
2022/08/31 10:08:19;;;;;;;1.67;0.77;;;;;;;20.30;90.10;101546.78;5029529;28;20310;-72
2022/08/31 10:10:48;;;;;;;1.67;0.80;;;;;;;20.18;89.97;101542.13;5027726;28;20614;-72
2022/08/31 10:13:20;;;;;;;1.05;0.80;;;;;;;20.33;92.21;101528.06;5022365;28;20246;-72
2022/08/31 10:15:52;;;;;;;0.77;0.68;;;;;;;20.20;87.58;101534.97;5028952;28;20224;-72
2022/08/31 10:18:25;;;;;;;1.07;0.97;;;;;;;20.34;90.44;101528.94;5026176;28;20210;-72
2022/08/31 10:20:57;;;;;;;1.38;0.80;;;;;;;20.22;97.56;101523.34;5010235;28;20220;-72
2022/08/31 10:23:37;;;;;;;1.48;1.15;;;;;;;20.06;99.77;101527.72;5028334;28;20204;-72
2022/08/31 10:26:10;;;;;;;1.45;0.90;;;;;;;19.91;100.00;101523.22;5026480;28;20203;-72
2022/08/31 10:28:42;;;;;;;1.33;0.77;;;;;;;19.88;100.00;101510.19;5029084;28;20203;-72
2022/08/31 10:31:18;;;;;;;0.70;0.70;;;;;;;19.67;100.00;101510.28;5029272;28;20906;-72
2022/08/31 10:36:58;;;;;;;1.97;1.10;;;;;;;19.28;100.00;101512.19;4962941;28;20236;-72
2022/08/31 10:39:32;;;;;;;1.20;1.10;;;;;;;19.33;100.00;101508.44;5015577;28;20203;-72
2022/08/31 10:42:04;;;;;;;0.80;0.80;;;;;;;19.34;100.00;101502.25;5026231;28;20234;-72
2022/08/31 10:44:38;;;;;;;1.03;0.90;;;;;;;19.45;96.37;101505.19;5024440;28;20192;-72
2022/08/31 10:47:05;;;;;;;0.93;0.90;;;;;;;19.43;95.66;101510.56;5027663;28;20284;-72
2022/08/31 10:49:34;;;;;;;2.40;1.00;;;;;;;19.40;94.88;101505.44;5029073;28;20200;-72
2022/08/31 10:52:10;;;;;;;1.13;0.80;;;;;;;19.55;97.54;101503.81;5029698;28;20220;-72
2022/08/31 10:54:46;;;;;;;1.80;1.20;;;;;;;19.66;96.72;101506.78;5025096;28;20199;-72
2022/08/31 10:57:22;;;;;;;1.13;1.00;;;;;;;19.81;95.44;101506.97;5025660;28;20203;-72
2022/08/31 10:59:56;;;;;;;1.00;0.90;;;;;;;19.85;93.97;101501.44;5023937;28;20209;-72
2022/08/31 11:02:44;;;;;;;0.97;0.93;;;;;;;20.02;91.97;101499.72;5022157;28;20203;-73
2022/08/31 11:05:28;;;;;;;2.97;1.00;;;;;;;20.08;85.82;101522.38;5027916;28;20204;-72
2022/08/31 11:08:05;;;;;;;1.90;0.80;;;;;;;20.14;85.99;101503.50;5024867;28;20895;-72
2022/08/31 11:10:45;;;;;;;2.07;0.90;;;;;;;20.33;86.97;101500.75;5022423;28;20230;-72
2022/08/31 11:13:28;;;;;;;1.00;0.90;;;;;;;20.47;87.54;101506.16;5033233;28;20294;-72
2022/08/31 11:16:27;;;;;;;0.97;0.87;;;;;;;20.35;86.36;101504.16;5026529;28;20215;-72
2022/08/31 11:19:24;;;;;;;2.63;1.13;;;;;;;20.41;89.27;101501.19;5019850;28;20692;-72
2022/08/31 11:22:20;;;;;;;1.77;1.10;;;;;;;20.37;83.54;101504.97;5027396;28;20223;-72
2022/08/31 11:25:27;;;;;;;2.00;1.10;;;;;;;20.47;80.86;101498.19;5028356;28;20208;-72
2022/08/31 11:28:01;;;;;;;2.20;0.90;;;;;;;20.48;77.09;101505.22;5028021;28;20562;-72
2022/08/31 11:30:31;;;;;;;0.93;0.70;;;;;;;20.50;78.79;101500.69;5025614;28;20231;-72
2022/08/31 11:33:01;;;;;;;0.80;0.73;;;;;;;20.64;80.77;101494.69;5026289;28;20200;-72
2022/08/31 11:35:56;;;;;;;1.10;0.90;;;;;;;20.72;80.66;101496.91;5027631;28;20708;-72
2022/08/31 11:38:41;;;;;;;0.77;0.77;;;;;;;20.87;76.13;101504.00;5022425;28;20199;-72
2022/08/31 11:41:12;;;;;;;1.17;0.77;;;;;;;20.94;75.29;101501.88;5026232;28;20615;-72
2022/08/31 11:43:52;;;;;;;1.30;0.80;;;;;;;20.99;74.64;101494.53;5028023;28;20274;-72
2022/08/31 11:46:42;;;;;;;0.80;0.80;;;;;;;21.04;77.09;101486.31;5022763;28;20626;-72
2022/08/31 11:49:10;;;;;;;1.08;0.80;;;;;;;21.17;78.46;101488.16;5027813;28;20230;-72
2022/08/31 11:51:46;;;;;;;1.35;0.82;;;;;;;20.92;77.41;101494.00;5027642;28;20224;-72
2022/08/31 11:54:36;;;;;;;1.33;1.00;;;;;;;20.78;78.33;101496.56;5023541;28;20304;-72